Time;durP1;ratioP1;P1;durP2;ratioP2;P2;SDS_P1;SDS_P2;PMS_P1;PMS_P2;Temp;Humidity;BMP_temperature;BMP_pressure;BME280_temperature;BME280_humidity;BME280_pressure;Samples;Min_cycle;Max_cycle;Signal;HPM_P1;HPM_P2
2024/01/28 00:00:45;;;;;;;47.53;17.87;;;-0.50;99.90;;;;;;6286395;22;20021;-42
2024/01/28 00:03:11;;;;;;;37.13;16.43;;;-0.50;99.90;;;;;;6312046;22;20093;-42
2024/01/28 00:05:37;;;;;;;47.67;18.23;;;-0.50;99.90;;;;;;6339924;22;20015;-42
2024/01/28 00:08:06;;;;;;;46.70;17.90;;;-0.50;99.90;;;;;;6338117;22;20050;-42
2024/01/28 00:10:32;;;;;;;45.27;18.10;;;-0.60;99.90;;;;;;6339645;22;20054;-42
2024/01/28 00:12:58;;;;;;;51.57;20.87;;;-0.60;99.90;;;;;;6339662;22;20399;-42
2024/01/28 00:15:24;;;;;;;41.23;17.70;;;-0.50;99.90;;;;;;6339891;22;20046;-42
2024/01/28 00:17:53;;;;;;;50.77;18.30;;;-0.60;99.90;;;;;;6339519;22;20019;-42
2024/01/28 00:20:19;;;;;;;50.67;16.87;;;-0.60;99.90;;;;;;6339520;22;20014;-42
2024/01/28 00:22:45;;;;;;;47.13;18.60;;;-0.50;99.90;;;;;;6312020;22;20530;-43
2024/01/28 00:25:11;;;;;;;45.57;19.10;;;-0.60;99.90;;;;;;6312269;22;20403;-42
2024/01/28 00:27:36;;;;;;;44.90;19.07;;;-0.50;99.90;;;;;;6311957;22;20015;-42
2024/01/28 00:30:04;;;;;;;45.20;18.80;;;-0.50;99.90;;;;;;6311809;22;20065;-42
2024/01/28 00:32:30;;;;;;;46.05;17.73;;;-0.50;99.90;;;;;;6339534;22;20028;-42
2024/01/28 00:34:55;;;;;;;43.87;17.20;;;-0.60;99.90;;;;;;6312721;22;20414;-42
2024/01/28 00:37:21;;;;;;;40.43;17.17;;;-0.60;99.90;;;;;;6339357;22;20152;-42
2024/01/28 00:39:47;;;;;;;47.17;16.57;;;-0.60;99.90;;;;;;6311706;22;20014;-42
2024/01/28 00:42:13;;;;;;;48.60;17.10;;;-0.60;99.90;;;;;;6339135;22;20025;-42
2024/01/28 00:44:39;;;;;;;43.50;16.77;;;-0.70;99.90;;;;;;6339786;22;20019;-42
2024/01/28 00:47:04;;;;;;;42.40;17.27;;;-0.60;99.90;;;;;;6339541;22;20473;-42
2024/01/28 00:49:30;;;;;;;42.88;16.38;;;-0.60;99.90;;;;;;6312889;22;20015;-42
2024/01/28 00:51:56;;;;;;;40.87;15.93;;;-0.70;99.90;;;;;;6312516;22;20304;-42
2024/01/28 00:54:23;;;;;;;44.37;18.20;;;-0.70;99.90;;;;;;6340470;22;20034;-42
2024/01/28 00:56:50;;;;;;;39.93;16.13;;;-0.70;99.90;;;;;;6338231;22;20462;-42
2024/01/28 00:59:15;;;;;;;43.70;17.73;;;-0.80;99.90;;;;;;6339359;22;20019;-42
2024/01/28 01:01:41;;;;;;;41.57;16.03;;;-0.60;99.90;;;;;;6339372;22;20053;-42
2024/01/28 01:04:07;;;;;;;41.83;18.07;;;-0.50;99.90;;;;;;6311642;22;20015;-42
2024/01/28 01:06:32;;;;;;;40.83;19.00;;;-0.70;99.90;;;;;;6311751;22;20057;-42
2024/01/28 01:08:59;;;;;;;45.10;17.50;;;-0.60;99.90;;;;;;6339348;22;20018;-42
2024/01/28 01:11:25;;;;;;;43.87;18.37;;;-0.60;99.90;;;;;;6339363;22;20019;-42
2024/01/28 01:13:51;;;;;;;38.77;17.20;;;-0.60;99.90;;;;;;6312616;22;20022;-42
2024/01/28 01:16:17;;;;;;;42.30;17.60;;;-0.40;99.90;;;;;;6339305;22;20019;-42
2024/01/28 01:18:44;;;;;;;49.03;16.53;;;-0.40;99.90;;;;;;6312515;22;20010;-42
2024/01/28 01:21:09;;;;;;;34.53;18.10;;;-0.30;99.90;;;;;;6339286;22;20049;-42
2024/01/28 01:23:35;;;;;;;42.33;16.93;;;-0.20;99.90;;;;;;6339177;22;20019;-42
2024/01/28 01:26:01;;;;;;;43.07;17.17;;;-0.20;99.90;;;;;;6311745;22;20027;-42
2024/01/28 01:28:31;;;;;;;33.70;16.83;;;-0.20;99.90;;;;;;6339314;22;20019;-42
2024/01/28 01:31:04;;;;;;;38.00;16.37;;;-0.20;99.90;;;;;;6312725;22;20025;-42
2024/01/28 01:33:30;;;;;;;36.90;16.88;;;-0.20;99.90;;;;;;6339241;22;20076;-42
2024/01/28 01:35:56;;;;;;;43.07;17.10;;;-0.20;99.90;;;;;;6311576;22;20061;-42
2024/01/28 01:38:22;;;;;;;40.70;16.07;;;-0.20;99.90;;;;;;6312357;22;20057;-42
2024/01/28 01:40:48;;;;;;;34.27;14.57;;;-0.30;99.90;;;;;;6339223;22;20019;-42
2024/01/28 01:43:15;;;;;;;33.00;15.43;;;-0.30;99.90;;;;;;6339209;22;20014;-42
2024/01/28 01:45:42;;;;;;;32.78;14.88;;;-0.40;99.90;;;;;;6337641;22;20027;-42
2024/01/28 01:48:10;;;;;;;38.73;16.60;;;-0.40;99.90;;;;;;6311590;22;20015;-42
2024/01/28 01:50:37;;;;;;;34.23;14.73;;;-0.30;99.90;;;;;;6339110;22;20050;-42
2024/01/28 01:53:04;;;;;;;37.33;15.43;;;-0.40;99.90;;;;;;6339118;22;20341;-42
2024/01/28 01:55:34;;;;;;;34.88;14.82;;;-0.50;99.90;;;;;;6311458;22;20011;-42
2024/01/28 01:58:01;;;;;;;33.70;16.73;;;-0.50;99.90;;;;;;6339099;22;20472;-42
2024/01/28 02:00:28;;;;;;;32.20;14.17;;;-0.50;99.90;;;;;;6339070;22;20026;-42
2024/01/28 02:02:54;;;;;;;38.30;15.80;;;-0.50;99.90;;;;;;6339950;22;20019;-42
2024/01/28 02:05:19;;;;;;;32.63;14.27;;;-0.60;99.90;;;;;;6339992;22;20469;-42
2024/01/28 02:07:45;;;;;;;35.17;14.53;;;-0.60;99.90;;;;;;6341455;22;20025;-42
2024/01/28 02:10:11;;;;;;;35.00;15.83;;;-0.60;99.90;;;;;;6340264;22;20394;-42
2024/01/28 02:12:38;;;;;;;36.43;15.37;;;-0.60;99.90;;;;;;6340830;22;20401;-42
2024/01/28 02:15:11;;;;;;;31.77;12.77;;;-0.50;99.90;;;;;;6340701;22;20053;-42
2024/01/28 02:17:37;;;;;;;30.87;13.80;;;-0.60;99.90;;;;;;6341482;22;20015;-42
2024/01/28 02:20:04;;;;;;;40.10;15.87;;;-0.50;99.90;;;;;;6340685;22;20014;-42
2024/01/28 02:22:30;;;;;;;39.27;15.80;;;-0.50;99.90;;;;;;6340751;22;20025;-42
2024/01/28 02:24:57;;;;;;;31.30;13.87;;;-0.50;99.90;;;;;;6313118;22;20015;-42
2024/01/28 02:27:23;;;;;;;38.30;14.45;;;-0.30;99.90;;;;;;6340610;22;20094;-42
2024/01/28 02:29:49;;;;;;;37.33;15.83;;;-0.30;99.90;;;;;;6339380;22;20330;-42
2024/01/28 02:32:17;;;;;;;36.73;13.87;;;-0.20;99.90;;;;;;6341310;22;20025;-42
2024/01/28 02:34:43;;;;;;;34.60;12.60;;;-0.10;99.90;;;;;;6340469;22;20033;-42
2024/01/28 02:37:11;;;;;;;31.08;12.90;;;-0.10;99.90;;;;;;6340496;22;20015;-42
2024/01/28 02:39:39;;;;;;;28.87;13.37;;;0.00;99.90;;;;;;6313058;22;20021;-42
2024/01/28 02:42:05;;;;;;;32.00;12.77;;;0.00;99.90;;;;;;6261782;22;20018;-42
2024/01/28 02:44:31;;;;;;;24.50;11.55;;;0.10;99.90;;;;;;6340395;22;20026;-42
2024/01/28 02:46:57;;;;;;;35.63;12.53;;;0.30;99.90;;;;;;6340378;22;20094;-42
2024/01/28 02:49:23;;;;;;;26.10;11.27;;;0.20;99.90;;;;;;6312950;22;20079;-42
2024/01/28 02:51:53;;;;;;;27.10;11.30;;;0.50;99.90;;;;;;6286957;22;20075;-42
2024/01/28 02:54:19;;;;;;;17.30;10.63;;;0.30;99.90;;;;;;6340340;22;20011;-42
2024/01/28 02:56:45;;;;;;;25.93;9.97;;;0.40;99.90;;;;;;6340336;22;20015;-41
2024/01/28 02:59:11;;;;;;;25.67;10.97;;;0.40;99.90;;;;;;6340203;22;20033;-42
2024/01/28 03:01:54;;;;;;;28.48;11.45;;;0.40;99.90;;;;;;6340263;22;20022;-42
2024/01/28 03:04:19;;;;;;;27.25;11.05;;;0.50;99.90;;;;;;6340656;22;20385;-42
2024/01/28 03:06:45;;;;;;;30.80;10.70;;;0.50;99.90;;;;;;6312863;22;20023;-42
2024/01/28 03:09:11;;;;;;;25.30;10.97;;;0.40;99.90;;;;;;6340124;22;20019;-41
2024/01/28 03:11:37;;;;;;;33.38;12.32;;;0.40;99.90;;;;;;6261875;22;20023;-42
2024/01/28 03:14:03;;;;;;;26.25;11.10;;;0.40;99.90;;;;;;6312630;22;20095;-42
2024/01/28 03:16:29;;;;;;;33.00;12.73;;;0.40;99.90;;;;;;6312467;22;20089;-42
2024/01/28 03:18:54;;;;;;;30.20;12.02;;;0.40;99.90;;;;;;6340498;22;20030;-42
2024/01/28 03:21:20;;;;;;;36.13;13.85;;;0.40;99.90;;;;;;6340149;22;20015;-42
2024/01/28 03:23:46;;;;;;;28.67;12.30;;;0.30;99.90;;;;;;6312597;22;20011;-42
2024/01/28 03:26:12;;;;;;;31.75;13.00;;;0.30;99.90;;;;;;6338673;22;20076;-42
2024/01/28 03:28:38;;;;;;;28.30;11.77;;;0.30;99.90;;;;;;6338941;22;20076;-41
2024/01/28 03:31:03;;;;;;;37.05;13.35;;;0.30;99.90;;;;;;6340381;22;20019;-42
2024/01/28 03:33:30;;;;;;;32.55;14.05;;;0.30;99.90;;;;;;6340020;22;20015;-42
2024/01/28 03:35:56;;;;;;;32.63;12.97;;;0.20;99.90;;;;;;6341083;22;20015;-42
2024/01/28 03:38:22;;;;;;;38.92;13.43;;;0.30;99.90;;;;;;6287129;22;20361;-42
2024/01/28 03:40:47;;;;;;;28.63;12.52;;;0.20;99.90;;;;;;6339975;22;20018;-42
2024/01/28 03:43:13;;;;;;;27.33;13.52;;;0.20;99.90;;;;;;6339352;22;20396;-42
2024/01/28 03:45:40;;;;;;;33.87;14.27;;;0.20;99.90;;;;;;6339569;22;20072;-42
2024/01/28 03:48:06;;;;;;;30.27;14.25;;;0.10;99.90;;;;;;6340003;22;20023;-42
2024/01/28 03:50:32;;;;;;;32.00;13.38;;;0.10;99.90;;;;;;6339987;22;20010;-42
2024/01/28 03:52:57;;;;;;;38.33;14.43;;;0.10;99.90;;;;;;6339453;22;20143;-42
2024/01/28 03:55:23;;;;;;;25.80;13.80;;;0.00;99.90;;;;;;6312435;22;20018;-42
2024/01/28 03:57:49;;;;;;;32.22;13.82;;;0.00;99.90;;;;;;6286559;22;20099;-42
2024/01/28 04:00:15;;;;;;;33.17;14.40;;;-0.10;99.90;;;;;;6312364;22;20342;-42
2024/01/28 04:02:41;;;;;;;30.08;14.55;;;-0.10;99.90;;;;;;6261979;22;20023;-42
2024/01/28 04:05:08;;;;;;;32.58;14.48;;;-0.10;99.90;;;;;;6286362;22;20064;-42
2024/01/28 04:07:33;;;;;;;28.83;14.47;;;-0.10;99.90;;;;;;6313266;22;20069;-42
2024/01/28 04:09:59;;;;;;;29.85;14.27;;;0.00;99.90;;;;;;6339714;22;20435;-42
2024/01/28 04:12:25;;;;;;;29.45;13.43;;;0.00;99.90;;;;;;6312844;22;20014;-42
2024/01/28 04:14:51;;;;;;;35.03;14.60;;;0.20;99.90;;;;;;6312226;22;20018;-42
2024/01/28 04:17:16;;;;;;;30.52;12.80;;;0.00;99.90;;;;;;6340352;22;20015;-42
2024/01/28 04:19:42;;;;;;;30.27;13.40;;;0.10;99.90;;;;;;6339692;22;20022;-42
2024/01/28 04:22:09;;;;;;;33.07;13.83;;;0.00;99.90;;;;;;6340712;22;20080;-42
2024/01/28 04:24:35;;;;;;;27.93;13.20;;;0.00;99.90;;;;;;6311515;22;20050;-42
2024/01/28 04:27:01;;;;;;;28.90;11.55;;;0.00;99.90;;;;;;6311423;22;20026;-43
2024/01/28 04:29:27;;;;;;;27.43;12.53;;;-0.10;99.90;;;;;;6286222;22;20319;-42
2024/01/28 04:31:53;;;;;;;23.83;12.40;;;-0.10;99.90;;;;;;6312108;22;20099;-41
2024/01/28 04:34:20;;;;;;;21.07;10.83;;;-0.10;99.90;;;;;;6312078;22;20434;-42
2024/01/28 04:36:46;;;;;;;23.58;11.30;;;0.00;99.90;;;;;;6339517;22;20026;-42
2024/01/28 04:39:12;;;;;;;27.87;12.10;;;0.00;99.90;;;;;;6339520;22;20054;-42
2024/01/28 04:41:39;;;;;;;25.27;11.13;;;0.00;99.90;;;;;;6338885;22;20019;-41
2024/01/28 04:44:05;;;;;;;25.03;11.30;;;0.00;99.90;;;;;;6311899;22;20023;-42
2024/01/28 04:46:31;;;;;;;30.23;10.93;;;0.00;99.90;;;;;;6312038;22;20379;-42
2024/01/28 04:48:57;;;;;;;29.13;11.77;;;0.00;99.90;;;;;;6339430;22;20018;-41
2024/01/28 04:51:22;;;;;;;28.60;11.57;;;0.10;99.90;;;;;;6339410;22;20446;-42
2024/01/28 04:53:48;;;;;;;25.97;11.87;;;0.00;99.90;;;;;;6340129;22;20017;-41
2024/01/28 04:56:14;;;;;;;23.30;11.37;;;-0.10;99.90;;;;;;6340430;22;20014;-41
2024/01/28 04:58:40;;;;;;;24.55;11.25;;;-0.10;99.90;;;;;;6312533;22;20014;-42
2024/01/28 05:01:05;;;;;;;32.80;11.73;;;-0.20;99.90;;;;;;6285918;22;20026;-41
2024/01/28 05:03:31;;;;;;;23.47;11.00;;;-0.30;99.90;;;;;;6312150;22;20019;-42
2024/01/28 05:05:58;;;;;;;28.30;11.83;;;-0.40;99.90;;;;;;6339334;22;20094;-42
2024/01/28 05:08:24;;;;;;;50.87;15.80;;;-0.50;99.90;;;;;;6339394;22;20021;-41
2024/01/28 05:10:50;;;;;;;29.33;12.97;;;-0.50;99.90;;;;;;6312057;22;20043;-41
2024/01/28 05:13:15;;;;;;;26.60;12.07;;;-0.50;99.90;;;;;;6311429;22;20030;-42
2024/01/28 05:15:42;;;;;;;29.20;12.50;;;-0.50;99.90;;;;;;6337860;22;20076;-42
2024/01/28 05:18:08;;;;;;;28.10;12.40;;;-0.40;99.90;;;;;;6311779;22;20049;-42
2024/01/28 05:20:34;;;;;;;36.17;13.47;;;-0.40;99.90;;;;;;6312516;22;20011;-42
2024/01/28 05:23:00;;;;;;;27.37;12.97;;;-0.40;99.90;;;;;;6312088;22;20068;-42
2024/01/28 05:25:26;;;;;;;32.70;12.87;;;-0.50;99.90;;;;;;6311798;22;20015;-41
2024/01/28 05:27:52;;;;;;;25.50;11.27;;;-0.50;99.90;;;;;;6340310;22;20015;-42
2024/01/28 05:30:18;;;;;;;32.33;13.47;;;-0.60;99.90;;;;;;6339931;22;20295;-42
2024/01/28 05:32:43;;;;;;;26.20;12.27;;;-0.70;99.90;;;;;;6312592;22;20443;-42
2024/01/28 05:35:09;;;;;;;30.00;13.50;;;-0.70;99.90;;;;;;6339252;22;20011;-42
2024/01/28 05:37:39;;;;;;;22.63;11.77;;;-0.70;99.90;;;;;;6339179;22;20438;-42
2024/01/28 05:40:05;;;;;;;29.80;13.43;;;-0.70;99.90;;;;;;6313375;22;20019;-42
2024/01/28 05:42:31;;;;;;;29.93;13.03;;;-0.90;99.90;;;;;;6340883;22;20321;-42
2024/01/28 05:44:56;;;;;;;29.30;12.27;;;-0.90;99.90;;;;;;6340984;22;20011;-42
2024/01/28 05:47:22;;;;;;;25.27;12.97;;;-1.00;99.90;;;;;;6313752;22;20026;-42
2024/01/28 05:49:48;;;;;;;29.63;11.97;;;-1.10;99.90;;;;;;6313651;22;20022;-42
2024/01/28 05:52:13;;;;;;;27.97;12.80;;;-1.10;99.90;;;;;;6314523;22;20086;-42
2024/01/28 05:54:41;;;;;;;33.10;14.03;;;-0.90;99.90;;;;;;6340484;22;20010;-42
2024/01/28 05:57:08;;;;;;;29.00;13.63;;;-1.10;99.90;;;;;;6341937;22;20358;-42
2024/01/28 05:59:34;;;;;;;25.43;13.03;;;-1.20;99.90;;;;;;6340885;22;20452;-42
2024/01/28 06:02:00;;;;;;;32.40;13.87;;;-1.20;99.90;;;;;;6313352;22;20050;-42
2024/01/28 06:04:26;;;;;;;30.70;12.97;;;-1.30;99.90;;;;;;6313290;22;20011;-42
2024/01/28 06:06:51;;;;;;;32.73;13.03;;;-1.30;99.90;;;;;;6313406;22;20015;-42
2024/01/28 06:09:18;;;;;;;31.07;14.17;;;-1.40;99.90;;;;;;6341144;22;20022;-42
2024/01/28 06:11:43;;;;;;;31.17;14.43;;;-1.40;99.90;;;;;;6287799;22;20026;-42
2024/01/28 06:14:10;;;;;;;26.33;13.40;;;-1.40;99.90;;;;;;6313470;22;20015;-42
2024/01/28 06:16:36;;;;;;;32.60;13.67;;;-1.30;99.90;;;;;;6313989;22;20086;-42
2024/01/28 06:19:02;;;;;;;30.63;14.20;;;-1.30;99.90;;;;;;6340691;22;20069;-42
2024/01/28 06:21:28;;;;;;;32.17;13.83;;;-1.20;99.90;;;;;;6313214;22;20011;-43
2024/01/28 06:23:54;;;;;;;27.27;13.40;;;-1.30;99.90;;;;;;6341162;22;20400;-42
2024/01/28 06:26:20;;;;;;;26.77;13.27;;;-1.20;99.90;;;;;;6288192;22;20018;-42
2024/01/28 06:28:46;;;;;;;25.23;13.40;;;-1.20;99.90;;;;;;6340552;22;20089;-42
2024/01/28 06:31:13;;;;;;;28.77;12.67;;;-1.30;99.90;;;;;;6287466;22;20022;-42
2024/01/28 06:33:39;;;;;;;22.60;12.73;;;-1.30;99.90;;;;;;6313024;22;20446;-42
2024/01/28 06:36:06;;;;;;;26.00;12.70;;;-1.30;99.90;;;;;;6341241;22;20361;-42
2024/01/28 06:38:32;;;;;;;26.43;13.30;;;-1.30;99.90;;;;;;6340915;22;20030;-42
2024/01/28 06:40:58;;;;;;;27.03;12.97;;;-1.40;99.90;;;;;;6340513;22;20015;-42
2024/01/28 06:43:25;;;;;;;31.20;13.97;;;-1.30;99.90;;;;;;6340520;22;20422;-42
2024/01/28 06:45:52;;;;;;;30.87;13.10;;;-1.30;99.90;;;;;;6313029;22;20033;-42
2024/01/28 06:48:18;;;;;;;33.93;13.87;;;-1.20;99.90;;;;;;6340447;22;20097;-42
2024/01/28 06:50:44;;;;;;;27.53;13.63;;;-1.20;99.90;;;;;;6286980;22;20054;-42
2024/01/28 06:53:10;;;;;;;28.67;14.33;;;-1.20;99.90;;;;;;6312923;22;20015;-42
2024/01/28 06:55:36;;;;;;;30.73;13.87;;;-1.20;99.90;;;;;;6339937;22;20026;-42
2024/01/28 06:58:01;;;;;;;29.33;13.73;;;-1.20;99.90;;;;;;6312812;22;20027;-42
2024/01/28 07:00:27;;;;;;;27.83;13.17;;;-1.30;99.90;;;;;;6340368;22;20046;-42
2024/01/28 07:02:56;;;;;;;28.03;13.03;;;-1.30;99.90;;;;;;6339869;22;20047;-43
2024/01/28 07:05:22;;;;;;;22.70;12.30;;;-1.20;99.90;;;;;;6340138;22;20050;-42
2024/01/28 07:07:48;;;;;;;30.67;14.20;;;-1.30;99.90;;;;;;6340603;22;20365;-42
2024/01/28 07:10:15;;;;;;;27.97;14.27;;;-1.20;99.90;;;;;;6340252;22;20093;-42
2024/01/28 07:12:41;;;;;;;26.53;12.70;;;-1.20;99.90;;;;;;6312655;22;20046;-43
2024/01/28 07:15:08;;;;;;;32.93;12.23;;;-1.30;99.90;;;;;;6340528;22;20015;-42
2024/01/28 07:17:34;;;;;;;24.83;13.90;;;-1.30;99.90;;;;;;6287087;22;20015;-42
2024/01/28 07:20:00;;;;;;;27.37;13.70;;;-1.30;99.90;;;;;;6340124;22;20089;-42
2024/01/28 07:22:25;;;;;;;34.70;12.90;;;-1.30;99.90;;;;;;6262189;22;20014;-42
2024/01/28 07:24:51;;;;;;;26.73;12.43;;;-1.20;99.90;;;;;;6340702;22;20019;-42
2024/01/28 07:27:21;;;;;;;29.37;12.80;;;-1.10;99.90;;;;;;6338598;22;20025;-42
2024/01/28 07:29:47;;;;;;;25.13;11.53;;;-1.20;99.90;;;;;;6340907;22;20417;-42
2024/01/28 07:32:16;;;;;;;30.50;13.97;;;-1.20;99.90;;;;;;6313405;22;20511;-42
2024/01/28 07:34:42;;;;;;;28.80;11.17;;;-1.20;99.90;;;;;;6340074;22;20046;-42
2024/01/28 07:37:08;;;;;;;33.07;12.27;;;-1.20;99.90;;;;;;6312514;22;20021;-42
2024/01/28 07:39:34;;;;;;;35.83;12.80;;;-1.10;99.90;;;;;;6312516;22;20018;-43
2024/01/28 07:41:59;;;;;;;28.77;11.83;;;-1.10;99.90;;;;;;6311023;22;20076;-42
2024/01/28 07:44:26;;;;;;;29.63;12.63;;;-1.10;99.90;;;;;;6280664;22;20020;-43
2024/01/28 07:46:52;;;;;;;24.03;11.07;;;-1.00;99.90;;;;;;6309773;22;20062;-42
2024/01/28 07:49:19;;;;;;;28.77;12.77;;;-1.00;99.90;;;;;;6308674;22;20015;-43
2024/01/28 07:51:45;;;;;;;24.47;13.50;;;-1.00;99.90;;;;;;6308638;22;20023;-42
2024/01/28 07:54:11;;;;;;;25.23;10.33;;;-0.90;99.90;;;;;;6308071;22;20023;-42
2024/01/28 07:56:36;;;;;;;26.03;11.07;;;-0.90;99.90;;;;;;6307096;22;20065;-42
2024/01/28 07:59:02;;;;;;;17.40;10.80;;;-0.90;99.90;;;;;;6256053;22;20395;-42
2024/01/28 08:01:30;;;;;;;17.57;9.77;;;-0.90;99.90;;;;;;6308410;22;20023;-42
2024/01/28 08:03:56;;;;;;;22.10;10.40;;;-0.90;99.90;;;;;;6308611;22;20011;-42
2024/01/28 08:06:22;;;;;;;25.73;10.43;;;-1.00;99.90;;;;;;6309205;22;20015;-42
2024/01/28 08:08:48;;;;;;;19.47;10.30;;;-1.00;99.90;;;;;;6306949;22;20015;-42
2024/01/28 08:11:14;;;;;;;33.90;11.30;;;-1.00;99.90;;;;;;6308561;22;20094;-42
2024/01/28 08:13:40;;;;;;;19.70;9.57;;;-1.00;99.90;;;;;;6309433;22;20011;-42
2024/01/28 08:16:07;;;;;;;17.60;10.03;;;-1.00;99.90;;;;;;6282108;22;20435;-43
2024/01/28 08:18:33;;;;;;;29.33;10.83;;;-0.70;99.90;;;;;;6308363;22;20015;-42
2024/01/28 08:20:58;;;;;;;20.17;10.10;;;-1.00;99.90;;;;;;6308341;22;20091;-43
2024/01/28 08:23:26;;;;;;;27.23;11.53;;;-0.90;99.90;;;;;;6308867;22;20549;-42
2024/01/28 08:25:53;;;;;;;21.30;9.53;;;-0.70;99.90;;;;;;6308319;22;20041;-42
2024/01/28 08:28:20;;;;;;;24.43;9.77;;;-0.70;99.90;;;;;;6308298;22;20050;-42
2024/01/28 08:30:46;;;;;;;19.30;8.70;;;-0.50;99.90;;;;;;6308228;22;20025;-42
2024/01/28 08:33:12;;;;;;;21.00;9.27;;;-0.40;99.90;;;;;;6308823;22;20094;-43
2024/01/28 08:35:38;;;;;;;19.43;8.87;;;-0.40;99.90;;;;;;6309236;22;20090;-42
2024/01/28 08:38:04;;;;;;;24.43;9.77;;;-0.30;99.90;;;;;;6308479;22;20369;-42
2024/01/28 08:40:30;;;;;;;18.73;8.70;;;-0.30;99.90;;;;;;6307990;22;20086;-43
2024/01/28 08:42:56;;;;;;;18.17;8.03;;;-0.20;99.90;;;;;;6316233;22;20049;-42
2024/01/28 08:45:23;;;;;;;17.60;7.53;;;0.00;99.90;;;;;;6311792;22;20018;-42
2024/01/28 08:47:48;;;;;;;14.03;8.10;;;0.10;99.90;;;;;;6340316;22;20093;-42
2024/01/28 08:50:14;;;;;;;18.80;7.30;;;0.10;99.90;;;;;;6339273;22;20050;-42
2024/01/28 08:52:42;;;;;;;16.33;7.30;;;0.20;99.90;;;;;;6339757;22;20019;-42
2024/01/28 08:55:08;;;;;;;15.60;7.50;;;0.20;99.90;;;;;;6340109;22;20010;-42
2024/01/28 08:57:34;;;;;;;20.27;7.40;;;0.30;99.90;;;;;;6311991;22;20015;-42
2024/01/28 09:00:00;;;;;;;13.47;6.80;;;0.30;99.90;;;;;;6311589;22;20333;-42
2024/01/28 09:02:26;;;;;;;16.80;7.40;;;0.40;99.90;;;;;;6311784;22;20090;-42
2024/01/28 09:04:52;;;;;;;13.10;6.37;;;0.40;99.90;;;;;;6339800;22;20420;-42
2024/01/28 09:07:18;;;;;;;15.93;6.67;;;0.50;99.90;;;;;;6311215;22;20011;-42
2024/01/28 09:09:43;;;;;;;21.55;6.72;;;0.50;99.90;;;;;;6286311;22;20015;-42
2024/01/28 09:12:09;;;;;;;16.47;6.47;;;0.60;99.90;;;;;;6286468;22;20018;-42
2024/01/28 09:14:36;;;;;;;15.10;6.30;;;0.90;99.90;;;;;;6340576;22;20007;-42
2024/01/28 09:17:02;;;;;;;17.48;6.05;;;0.80;99.90;;;;;;6313694;22;20462;-42
2024/01/28 09:19:28;;;;;;;17.65;5.82;;;0.90;99.90;;;;;;6341278;22;20010;-42
2024/01/28 09:21:54;;;;;;;14.00;5.90;;;1.10;99.90;;;;;;6342121;22;20071;-42
2024/01/28 09:24:20;;;;;;;16.48;5.40;;;1.20;99.90;;;;;;6341404;22;20011;-42
2024/01/28 09:26:46;;;;;;;16.05;6.18;;;1.30;99.90;;;;;;6313623;22;20037;-42
2024/01/28 09:29:12;;;;;;;12.60;5.05;;;1.50;99.90;;;;;;6340942;22;20080;-42
2024/01/28 09:31:38;;;;;;;12.93;5.30;;;1.70;99.90;;;;;;6314214;22;20068;-42
2024/01/28 09:34:04;;;;;;;11.82;6.15;;;1.90;99.90;;;;;;6288791;22;20006;-41
2024/01/28 09:36:30;;;;;;;12.90;5.82;;;2.10;99.90;;;;;;6313655;22;20025;-41
2024/01/28 09:38:56;;;;;;;13.27;5.75;;;2.30;99.90;;;;;;6341841;22;20019;-42
2024/01/28 09:41:29;;;;;;;11.55;5.45;;;2.60;99.90;;;;;;6313778;22;20021;-42
2024/01/28 09:43:55;;;;;;;12.88;4.78;;;2.80;99.90;;;;;;6340708;22;20342;-42
2024/01/28 09:46:21;;;;;;;17.05;5.45;;;3.00;99.90;;;;;;6340983;22;20022;-42
2024/01/28 09:48:50;;;;;;;12.70;4.90;;;3.20;99.90;;;;;;6341002;22;20019;-41
2024/01/28 09:51:18;;;;;;;12.63;4.43;;;3.40;99.90;;;;;;6341281;22;20018;-40
2024/01/28 09:53:44;;;;;;;17.42;5.38;;;3.50;99.90;;;;;;6314385;22;20048;-41
2024/01/28 09:56:13;;;;;;;15.25;5.22;;;3.60;99.90;;;;;;6313443;22;20046;-42
2024/01/28 09:58:40;;;;;;;11.65;4.32;;;3.80;99.90;;;;;;6313386;22;20014;-41
2024/01/28 10:01:07;;;;;;;14.75;5.32;;;3.70;99.90;;;;;;6340838;22;20087;-41
2024/01/28 10:03:34;;;;;;;9.27;4.70;;;3.70;99.90;;;;;;6340732;22;20014;-42
2024/01/28 10:05:59;;;;;;;13.95;4.70;;;3.70;99.90;;;;;;6313712;22;20085;-40
2024/01/28 10:08:26;;;;;;;14.70;5.15;;;3.60;99.90;;;;;;6340750;22;20057;-41
2024/01/28 10:10:55;;;;;;;8.70;3.58;;;3.60;99.90;;;;;;6313565;22;20014;-39
2024/01/28 10:13:21;;;;;;;10.23;3.70;;;3.50;99.90;;;;;;6340709;22;20093;-41
2024/01/28 10:15:57;;;;;;;17.48;4.90;;;3.60;99.90;;;;;;6287540;22;20046;-40
2024/01/28 10:18:24;;;;;;;11.35;3.38;;;3.60;99.90;;;;;;6340686;22;20022;-41
2024/01/28 10:20:50;;;;;;;16.23;5.38;;;3.70;99.90;;;;;;6341019;22;20060;-40
2024/01/28 10:23:19;;;;;;;12.93;3.60;;;3.80;99.90;;;;;;6313081;22;20411;-40
2024/01/28 10:25:46;;;;;;;15.70;4.20;;;3.80;99.90;;;;;;6340189;22;20010;-41
2024/01/28 10:28:12;;;;;;;9.88;3.22;;;4.00;99.90;;;;;;6313432;22;20439;-41
2024/01/28 10:30:39;;;;;;;10.50;2.92;;;4.10;99.90;;;;;;6340637;22;20015;-41
2024/01/28 10:33:07;;;;;;;7.72;3.22;;;4.10;99.90;;;;;;6314098;22;20141;-40
2024/01/28 10:35:32;;;;;;;11.90;3.30;;;4.20;99.90;;;;;;6341575;22;20015;-41
2024/01/28 10:37:59;;;;;;;10.32;3.63;;;4.20;99.90;;;;;;6341521;22;20288;-41
2024/01/28 10:40:34;;;;;;;9.82;3.17;;;4.20;99.90;;;;;;6340517;22;20015;-41
2024/01/28 10:43:02;;;;;;;9.35;3.17;;;4.30;99.90;;;;;;6340865;22;20019;-40
2024/01/28 10:45:29;;;;;;;9.82;2.97;;;4.40;99.90;;;;;;6287058;22;20080;-40
2024/01/28 10:47:59;;;;;;;7.80;3.03;;;4.40;99.90;;;;;;6312901;22;20047;-41
2024/01/28 10:50:29;;;;;;;10.90;3.08;;;4.50;99.90;;;;;;6340359;22;20102;-41
2024/01/28 10:52:58;;;;;;;10.85;3.78;;;4.60;99.90;;;;;;6340462;22;20330;-40
2024/01/28 10:55:24;;;;;;;7.57;3.03;;;4.60;99.90;;;;;;6340357;22;20011;-41
2024/01/28 10:57:53;;;;;;;10.48;2.90;;;4.60;99.90;;;;;;6313766;22;20318;-40
2024/01/28 11:00:21;;;;;;;7.15;2.92;;;4.70;99.90;;;;;;6341346;22;20015;-41
2024/01/28 11:02:49;;;;;;;11.80;3.03;;;4.70;99.90;;;;;;6340339;22;20045;-39
2024/01/28 11:05:16;;;;;;;13.25;3.70;;;4.80;99.90;;;;;;6312755;22;20015;-40
2024/01/28 11:07:42;;;;;;;5.05;2.47;;;4.90;99.90;;;;;;6340315;22;20342;-41
2024/01/28 11:10:09;;;;;;;9.73;3.20;;;4.90;99.90;;;;;;6312765;22;20473;-39
2024/01/28 11:12:35;;;;;;;7.85;2.53;;;5.00;99.90;;;;;;6340234;22;20015;-39
2024/01/28 11:15:01;;;;;;;6.40;2.60;;;5.10;99.90;;;;;;6313710;22;20023;-39
2024/01/28 11:17:34;;;;;;;6.10;3.03;;;5.20;99.90;;;;;;6313456;22;20385;-41
2024/01/28 11:20:16;;;;;;;8.25;2.97;;;5.20;99.90;;;;;;6313712;22;20015;-39
2024/01/28 11:22:53;;;;;;;8.70;3.00;;;5.30;99.90;;;;;;6340831;22;20023;-40
2024/01/28 11:25:24;;;;;;;6.45;2.50;;;5.50;99.90;;;;;;6339985;22;20426;-38
2024/01/28 11:28:01;;;;;;;5.75;2.88;;;5.40;99.90;;;;;;6313043;22;20019;-40
2024/01/28 11:30:28;;;;;;;5.43;2.47;;;5.50;99.90;;;;;;6312587;22;20034;-40
2024/01/28 11:33:09;;;;;;;6.68;2.25;;;5.50;99.90;;;;;;6340117;22;20014;-40
2024/01/28 11:35:35;;;;;;;8.30;2.67;;;5.60;99.90;;;;;;6287044;22;20023;-40
2024/01/28 11:38:07;;;;;;;7.18;2.45;;;5.60;99.90;;;;;;6311444;22;20022;-39
2024/01/28 11:40:37;;;;;;;5.28;2.28;;;5.60;99.90;;;;;;6340058;22;20022;-39
2024/01/28 11:43:07;;;;;;;9.38;3.05;;;5.70;99.90;;;;;;6339910;22;20125;-36
2024/01/28 11:45:35;;;;;;;7.18;2.80;;;5.70;99.90;;;;;;6312610;22;20090;-39
2024/01/28 11:48:08;;;;;;;5.80;2.35;;;5.80;99.90;;;;;;6312361;22;20046;-40
2024/01/28 11:50:34;;;;;;;6.00;2.75;;;5.90;99.90;;;;;;6313363;22;20381;-40
2024/01/28 11:52:59;;;;;;;5.88;2.03;;;6.00;99.90;;;;;;6287622;22;20101;-38
2024/01/28 11:55:25;;;;;;;9.88;2.88;;;6.00;99.90;;;;;;6339496;22;20042;-40
2024/01/28 11:57:51;;;;;;;5.93;2.35;;;6.10;99.90;;;;;;6312281;22;20023;-36
2024/01/28 12:00:17;;;;;;;7.00;2.30;;;6.10;99.90;;;;;;6340568;22;20022;-39
2024/01/28 12:02:43;;;;;;;5.10;2.05;;;6.20;99.90;;;;;;6312558;22;20015;-39
2024/01/28 12:05:10;;;;;;;10.60;2.42;;;6.30;99.90;;;;;;6339704;22;20007;-39
2024/01/28 12:07:39;;;;;;;8.75;2.63;;;6.20;99.90;;;;;;6312044;22;20026;-39
2024/01/28 12:10:12;;;;;;;8.27;2.65;;;6.30;99.90;;;;;;6339684;22;20057;-39
2024/01/28 12:12:42;;;;;;;5.68;1.95;;;6.40;99.90;;;;;;6339708;22;20015;-40
2024/01/28 12:15:11;;;;;;;6.13;2.15;;;6.40;99.90;;;;;;6286443;22;20030;-38
2024/01/28 12:17:38;;;;;;;8.68;2.28;;;6.40;99.90;;;;;;6312289;22;20030;-40
2024/01/28 12:20:06;;;;;;;6.18;2.05;;;6.60;99.90;;;;;;6312001;22;20074;-40
2024/01/28 12:22:39;;;;;;;7.60;2.22;;;6.60;99.90;;;;;;6313099;22;20088;-35
2024/01/28 12:25:10;;;;;;;6.28;2.35;;;6.70;99.90;;;;;;6340227;22;20015;-40
2024/01/28 12:27:39;;;;;;;8.13;2.67;;;6.70;99.90;;;;;;6287856;22;20022;-38
2024/01/28 12:30:07;;;;;;;4.80;2.05;;;6.80;99.90;;;;;;6312121;22;20094;-38
2024/01/28 12:32:33;;;;;;;7.40;2.70;;;6.80;99.90;;;;;;6311775;22;20378;-38